Time;durP1;ratioP1;P1;durP2;ratioP2;P2;SDS_P1;SDS_P2;PMS_P1;PMS_P2;Temp;Humidity;BMP_temperature;BMP_pressure;BME280_temperature;BME280_humidity;BME280_pressure;Samples;Min_cycle;Max_cycle;Signal;HPM_P1;HPM_P2
2021/12/21 00:01:55;;;;;;;21.13;9.18;;;-2.40;99.90;;;;;;5051165;28;20114;-65
2021/12/21 00:04:21;;;;;;;15.75;8.55;;;-2.30;99.90;;;;;;5033292;28;20037;-66
2021/12/21 00:06:46;;;;;;;14.52;7.97;;;-2.30;99.90;;;;;;5052480;28;20064;-66
2021/12/21 00:09:12;;;;;;;13.77;6.80;;;-2.30;99.90;;;;;;5033421;28;20075;-65
2021/12/21 00:11:38;;;;;;;10.27;5.10;;;-2.40;99.90;;;;;;5025461;28;20441;-65
2021/12/21 00:14:21;;;;;;;9.35;3.72;;;-2.40;99.90;;;;;;5026519;28;20067;-65
2021/12/21 00:17:05;;;;;;;6.50;3.28;;;-2.40;99.90;;;;;;5004126;28;20040;-65
2021/12/21 00:19:47;;;;;;;5.07;2.85;;;-2.40;99.90;;;;;;5023991;28;20044;-65
2021/12/21 00:24:58;;;;;;;13.25;6.55;;;-2.30;99.90;;;;;;4997162;28;20089;-65
2021/12/21 00:27:24;;;;;;;12.55;6.57;;;-2.30;99.90;;;;;;5007266;28;20108;-65
2021/12/21 00:29:50;;;;;;;13.23;6.60;;;-2.40;99.90;;;;;;5018605;28;20480;-65
2021/12/21 00:32:15;;;;;;;18.55;9.05;;;-2.50;99.90;;;;;;4985100;28;20056;-65
2021/12/21 00:34:41;;;;;;;23.48;13.55;;;-2.50;99.90;;;;;;5004763;28;20053;-65
2021/12/21 00:37:07;;;;;;;21.58;11.85;;;-2.50;99.90;;;;;;5004463;28;20043;-65
2021/12/21 00:39:33;;;;;;;26.08;13.00;;;-2.50;99.90;;;;;;4995234;28;20041;-65
2021/12/21 00:42:01;;;;;;;19.90;12.48;;;-2.60;99.90;;;;;;4995710;28;20045;-65
2021/12/21 00:44:26;;;;;;;18.20;10.18;;;-2.60;99.90;;;;;;5005835;28;20199;-65
2021/12/21 00:46:52;;;;;;;22.83;13.07;;;-2.70;99.90;;;;;;5023067;28;20106;-65
2021/12/21 00:49:20;;;;;;;23.13;12.55;;;-2.80;99.90;;;;;;5013183;28;20052;-65
2021/12/21 00:51:47;;;;;;;19.92;11.63;;;-2.70;99.90;;;;;;5008984;28;20042;-65
2021/12/21 00:54:15;;;;;;;21.23;9.93;;;-2.70;99.90;;;;;;4996153;28;20038;-65
2021/12/21 00:56:40;;;;;;;15.15;8.38;;;-2.70;99.90;;;;;;4997097;28;20038;-65
2021/12/21 00:59:06;;;;;;;18.42;8.50;;;-2.60;99.90;;;;;;5025490;28;20041;-65
2021/12/21 01:01:35;;;;;;;14.07;7.00;;;-2.70;99.90;;;;;;5007292;28;20049;-65
2021/12/21 01:04:05;;;;;;;9.43;6.13;;;-2.70;99.90;;;;;;4993143;28;20052;-65
2021/12/21 01:06:44;;;;;;;8.02;5.13;;;-2.70;99.90;;;;;;4998495;28;20033;-65
2021/12/21 01:11:59;;;;;;;9.85;3.47;;;-2.70;99.90;;;;;;5012473;28;20054;-65
2021/12/21 01:19:39;;;;;;;6.72;2.40;;;-2.70;99.90;;;;;;5003274;28;20047;-65
2021/12/21 01:22:42;;;;;;;7.93;3.13;;;-2.60;99.90;;;;;;4999701;28;20156;-67
2021/12/21 01:25:35;;;;;;;10.50;3.83;;;-2.70;99.90;;;;;;5025194;28;20063;-65
2021/12/21 01:28:03;;;;;;;3.20;2.03;;;-2.70;99.90;;;;;;5008278;28;20393;-65
2021/12/21 01:33:07;;;;;;;4.35;2.45;;;-2.70;99.90;;;;;;5011669;28;20077;-65
2021/12/21 01:35:41;;;;;;;5.70;2.05;;;-2.70;99.90;;;;;;5009787;28;20045;-65
2021/12/21 01:38:20;;;;;;;5.45;2.47;;;-2.70;99.90;;;;;;5012546;28;20083;-65
2021/12/21 01:40:54;;;;;;;6.40;2.40;;;-2.70;99.90;;;;;;5012589;28;20033;-65
2021/12/21 01:43:28;;;;;;;4.43;1.98;;;-2.70;99.90;;;;;;5027079;28;20041;-65
2021/12/21 01:51:23;;;;;;;3.85;1.90;;;-2.80;99.90;;;;;;5003487;28;20057;-65
2021/12/21 01:53:50;;;;;;;4.93;3.47;;;-2.80;99.90;;;;;;5025436;28;20033;-65
2021/12/21 01:56:16;;;;;;;7.03;1.95;;;-2.80;99.90;;;;;;5011086;28;20056;-64
2021/12/21 01:58:42;;;;;;;7.22;1.88;;;-2.80;99.90;;;;;;5008094;28;20037;-65
2021/12/21 02:01:11;;;;;;;5.07;1.63;;;-2.80;99.90;;;;;;5008238;28;20041;-66
2021/12/21 02:03:38;;;;;;;7.43;1.90;;;-2.80;99.90;;;;;;4994091;28;20117;-65
2021/12/21 02:06:04;;;;;;;7.72;1.92;;;-2.80;99.90;;;;;;5010248;28;20049;-64
2021/12/21 02:08:29;;;;;;;4.18;1.85;;;-2.80;99.90;;;;;;5011755;28;20037;-65
2021/12/21 02:10:59;;;;;;;5.78;2.25;;;-2.90;99.90;;;;;;5028808;28;20037;-65
2021/12/21 02:13:30;;;;;;;4.88;1.80;;;-2.90;99.90;;;;;;5006005;28;20063;-65
2021/12/21 02:15:55;;;;;;;4.60;1.92;;;-2.90;99.90;;;;;;5021040;28;20034;-65
2021/12/21 02:21:06;;;;;;;4.63;1.83;;;-2.90;99.90;;;;;;5029454;28;20427;-65
2021/12/21 02:23:38;;;;;;;8.25;2.47;;;-2.90;99.90;;;;;;5028275;28;20033;-65
2021/12/21 02:29:10;;;;;;;10.02;2.22;;;-3.00;99.90;;;;;;5006828;28;20061;-65
2021/12/21 02:31:37;;;;;;;2.80;1.75;;;-3.00;99.90;;;;;;5027979;28;20033;-65
2021/12/21 02:34:03;;;;;;;7.05;2.30;;;-3.00;99.90;;;;;;5024833;28;20038;-65
2021/12/21 02:36:29;;;;;;;5.05;2.10;;;-3.10;99.90;;;;;;5011185;28;20055;-65
2021/12/21 02:38:55;;;;;;;4.80;2.05;;;-3.00;99.90;;;;;;5029135;28;20140;-64
2021/12/21 02:41:21;;;;;;;4.50;1.67;;;-3.10;99.90;;;;;;5027405;28;20045;-65
2021/12/21 02:43:47;;;;;;;7.90;2.33;;;-3.10;99.90;;;;;;5008168;28;20041;-66
2021/12/21 02:46:12;;;;;;;4.03;1.80;;;-3.10;99.90;;;;;;5033804;28;20068;-64
2021/12/21 02:48:38;;;;;;;7.60;2.20;;;-3.10;99.90;;;;;;5023210;28;20056;-65
2021/12/21 02:51:05;;;;;;;4.85;1.80;;;-3.20;99.90;;;;;;5022639;28;20453;-65
2021/12/21 02:53:30;;;;;;;6.95;1.58;;;-3.10;99.90;;;;;;5026631;28;20108;-65
2021/12/21 02:55:56;;;;;;;6.07;1.38;;;-3.10;99.90;;;;;;5006545;28;20132;-65
2021/12/21 02:58:22;;;;;;;7.13;1.67;;;-3.20;99.90;;;;;;4993167;28;20049;-64
2021/12/21 03:00:48;;;;;;;3.92;1.40;;;-3.20;99.90;;;;;;5023616;28;20121;-65
2021/12/21 03:03:14;;;;;;;6.63;1.70;;;-3.20;99.90;;;;;;5008125;28;20034;-65
2021/12/21 03:05:47;;;;;;;7.63;2.10;;;-3.20;99.90;;;;;;4992822;28;20060;-65
2021/12/21 03:08:19;;;;;;;6.03;1.83;;;-3.20;99.90;;;;;;5027993;28;20099;-65
2021/12/21 03:11:13;;;;;;;3.35;1.40;;;-3.30;99.90;;;;;;5010807;28;20064;-65
2021/12/21 03:16:16;;;;;;;5.97;1.38;;;-3.20;99.90;;;;;;5021316;28;20049;-65
2021/12/21 03:18:42;;;;;;;7.25;1.60;;;-3.30;99.90;;;;;;5006258;28;20025;-65
2021/12/21 03:21:08;;;;;;;4.18;1.25;;;-3.40;99.90;;;;;;5008220;28;20077;-65
2021/12/21 03:23:34;;;;;;;2.83;1.40;;;-3.40;99.90;;;;;;5028795;28;20349;-65
2021/12/21 03:26:00;;;;;;;2.72;1.58;;;-3.40;99.90;;;;;;5006759;28;20165;-65
2021/12/21 03:28:26;;;;;;;2.33;1.58;;;-3.40;99.90;;;;;;4997755;28;20051;-65
2021/12/21 03:30:51;;;;;;;3.22;1.30;;;-3.40;99.90;;;;;;5009236;28;20034;-65
2021/12/21 03:33:18;;;;;;;6.25;1.58;;;-3.40;99.90;;;;;;5011676;28;20727;-65
2021/12/21 03:35:43;;;;;;;7.57;1.80;;;-3.30;99.90;;;;;;5032065;28;20052;-65
2021/12/21 03:38:09;;;;;;;3.42;2.45;;;-3.40;99.90;;;;;;5030274;28;20037;-64
2021/12/21 03:40:35;;;;;;;8.25;1.95;;;-3.40;99.90;;;;;;5015235;28;20073;-65
2021/12/21 03:43:01;;;;;;;2.33;1.30;;;-3.40;99.90;;;;;;5006464;28;20111;-64
2021/12/21 03:45:31;;;;;;;6.75;1.63;;;-3.40;99.90;;;;;;5010315;28;20029;-64
2021/12/21 03:47:57;;;;;;;4.50;1.40;;;-3.40;99.90;;;;;;4990175;28;20041;-65
2021/12/21 03:50:22;;;;;;;6.75;1.48;;;-3.40;99.90;;;;;;5014119;28;20030;-65
2021/12/21 03:52:48;;;;;;;4.82;1.70;;;-3.50;99.90;;;;;;5006081;28;20088;-64
2021/12/21 03:55:14;;;;;;;3.33;1.15;;;-3.50;99.90;;;;;;5013372;28;20378;-65
2021/12/21 03:57:40;;;;;;;4.53;1.63;;;-3.40;99.90;;;;;;5030718;28;20025;-65
2021/12/21 04:00:09;;;;;;;2.40;1.20;;;-3.50;99.90;;;;;;4999224;28;20046;-66
2021/12/21 04:02:35;;;;;;;2.95;1.20;;;-3.50;99.90;;;;;;5029717;28;20045;-65
2021/12/21 04:05:00;;;;;;;4.85;1.58;;;-3.50;99.90;;;;;;5025324;28;20038;-65
2021/12/21 04:07:28;;;;;;;7.10;2.33;;;-3.50;99.90;;;;;;5008336;28;20033;-65
2021/12/21 04:09:54;;;;;;;3.63;1.30;;;-3.50;99.90;;;;;;5031883;28;20048;-65
2021/12/21 04:12:19;;;;;;;5.50;1.60;;;-3.50;99.90;;;;;;5012689;28;20041;-65
2021/12/21 04:14:45;;;;;;;3.53;1.20;;;-3.50;99.90;;;;;;5011024;28;20029;-64
2021/12/21 04:17:21;;;;;;;3.40;1.48;;;-3.50;99.90;;;;;;5029638;28;20044;-65
2021/12/21 04:19:48;;;;;;;3.90;1.35;;;-3.50;99.90;;;;;;5027956;28;20461;-64
2021/12/21 04:22:15;;;;;;;4.15;1.40;;;-3.60;99.90;;;;;;5013378;28;20045;-65
2021/12/21 04:24:40;;;;;;;2.40;1.00;;;-3.70;99.90;;;;;;5018614;28;20496;-65
2021/12/21 04:27:06;;;;;;;5.90;1.33;;;-3.70;99.90;;;;;;5031352;28;20053;-65
2021/12/21 04:29:32;;;;;;;5.25;1.20;;;-3.60;99.90;;;;;;5048212;28;20056;-65
2021/12/21 04:31:58;;;;;;;3.15;1.15;;;-3.50;99.90;;;;;;5030656;28;20482;-64
2021/12/21 04:34:23;;;;;;;3.38;1.38;;;-3.50;99.90;;;;;;5014491;28;20037;-65
2021/12/21 04:36:49;;;;;;;4.20;1.20;;;-3.60;99.90;;;;;;5031945;28;20124;-64
2021/12/21 04:39:32;;;;;;;7.35;1.40;;;-3.60;99.90;;;;;;5032250;28;20513;-65
2021/12/21 04:41:57;;;;;;;4.13;1.25;;;-3.60;99.90;;;;;;5031834;28;20064;-64
2021/12/21 04:44:23;;;;;;;2.40;1.10;;;-3.50;99.90;;;;;;5031330;28;20468;-65
2021/12/21 04:46:49;;;;;;;4.35;0.90;;;-3.60;99.90;;;;;;5028141;28;20049;-65
2021/12/21 04:49:14;;;;;;;4.15;1.10;;;-3.70;99.90;;;;;;5015970;28;20063;-64
2021/12/21 04:51:40;;;;;;;2.85;0.90;;;-3.70;99.90;;;;;;5028537;28;20091;-64
2021/12/21 04:54:05;;;;;;;3.03;1.20;;;-3.70;99.90;;;;;;5028692;28;20041;-65
2021/12/21 04:56:31;;;;;;;3.30;1.08;;;-3.70;99.90;;;;;;5028552;28;20144;-65
2021/12/21 04:58:57;;;;;;;6.15;1.38;;;-3.80;99.90;;;;;;5030736;28;20116;-64
2021/12/21 05:01:22;;;;;;;2.35;1.02;;;-3.80;99.90;;;;;;5049288;28;20049;-65
2021/12/21 05:03:48;;;;;;;3.22;1.02;;;-3.90;99.90;;;;;;5030782;28;20511;-64
2021/12/21 05:06:15;;;;;;;4.40;1.65;;;-3.80;99.90;;;;;;5050499;28;20125;-65
2021/12/21 05:08:41;;;;;;;3.10;1.08;;;-3.80;99.90;;;;;;5030610;28;20048;-64
2021/12/21 05:11:08;;;;;;;3.60;0.90;;;-3.80;99.90;;;;;;5024960;28;20037;-64
2021/12/21 05:13:38;;;;;;;3.45;1.00;;;-3.80;99.90;;;;;;5029718;28;20056;-65
2021/12/21 05:16:05;;;;;;;1.67;0.90;;;-3.70;99.90;;;;;;5031152;28;20449;-64
2021/12/21 05:18:32;;;;;;;2.60;1.00;;;-3.80;99.90;;;;;;5027776;28;20037;-64
2021/12/21 05:20:58;;;;;;;3.90;1.20;;;-3.80;99.90;;;;;;5049435;28;20040;-64
2021/12/21 05:23:24;;;;;;;2.88;0.93;;;-3.80;99.90;;;;;;5029166;28;20546;-64
2021/12/21 05:25:50;;;;;;;4.63;1.48;;;-3.90;99.90;;;;;;5030203;28;20543;-65
2021/12/21 05:28:16;;;;;;;4.50;1.83;;;-3.90;99.90;;;;;;5029845;28;20037;-64
2021/12/21 05:30:42;;;;;;;2.85;1.45;;;-3.90;99.90;;;;;;5030532;28;20424;-64
2021/12/21 05:33:08;;;;;;;1.30;0.95;;;-3.90;99.90;;;;;;5026967;28;20053;-64
2021/12/21 05:35:35;;;;;;;5.13;1.00;;;-3.90;99.90;;;;;;5048899;28;20051;-64
2021/12/21 05:38:04;;;;;;;2.97;1.00;;;-3.90;99.90;;;;;;5049867;28;20045;-64
2021/12/21 05:40:37;;;;;;;4.63;1.10;;;-3.80;99.90;;;;;;5024694;28;20052;-64
2021/12/21 05:43:04;;;;;;;2.08;0.85;;;-3.90;99.90;;;;;;5024865;28;20067;-64
2021/12/21 05:45:30;;;;;;;1.77;0.85;;;-3.90;99.90;;;;;;5047250;28;20037;-64
2021/12/21 05:47:56;;;;;;;8.35;1.45;;;-3.90;99.90;;;;;;5014483;28;20131;-64
2021/12/21 05:50:23;;;;;;;2.28;0.90;;;-3.90;99.90;;;;;;5029553;28;20037;-65
2021/12/21 05:52:49;;;;;;;2.78;0.70;;;-3.90;99.90;;;;;;5029576;28;20063;-64
2021/12/21 05:55:17;;;;;;;5.03;0.95;;;-3.80;99.90;;;;;;5048919;28;20036;-64
2021/12/21 05:57:43;;;;;;;3.53;1.00;;;-3.90;99.90;;;;;;5047406;28;20044;-64
2021/12/21 06:00:13;;;;;;;2.00;1.00;;;-3.80;99.90;;;;;;5029018;28;20047;-64
2021/12/21 06:02:39;;;;;;;4.85;1.00;;;-3.90;99.90;;;;;;5030227;28;20099;-65
2021/12/21 06:05:06;;;;;;;1.77;1.10;;;-3.90;99.90;;;;;;5048039;28;20044;-64
2021/12/21 06:07:32;;;;;;;2.63;0.95;;;-4.00;99.90;;;;;;5049079;28;20121;-64
2021/12/21 06:09:59;;;;;;;2.72;1.10;;;-4.00;99.90;;;;;;5048327;28;20056;-65
2021/12/21 06:12:52;;;;;;;3.65;1.48;;;-4.10;99.90;;;;;;5047905;28;20158;-65
2021/12/21 06:15:26;;;;;;;2.13;1.38;;;-4.10;99.90;;;;;;5024835;28;20052;-64
2021/12/21 06:23:46;;;;;;;4.13;1.00;;;-4.20;99.90;;;;;;5025622;28;20080;-64
2021/12/21 06:26:11;;;;;;;5.00;0.80;;;-4.20;99.90;;;;;;5028931;28;20103;-64
2021/12/21 06:28:38;;;;;;;2.17;1.02;;;-4.20;99.90;;;;;;5012622;28;20164;-64
2021/12/21 06:31:03;;;;;;;1.77;1.05;;;-4.10;99.90;;;;;;5026753;28;20037;-64
2021/12/21 06:33:30;;;;;;;4.03;0.90;;;-4.10;99.90;;;;;;5029415;28;20124;-64
2021/12/21 06:35:56;;;;;;;4.25;1.38;;;-4.10;99.90;;;;;;5026938;28;20068;-64
2021/12/21 06:38:21;;;;;;;3.15;1.50;;;-4.10;99.90;;;;;;5029610;28;20045;-64
2021/12/21 06:40:47;;;;;;;5.53;1.25;;;-4.10;99.90;;;;;;5048169;28;20254;-64
2021/12/21 06:43:15;;;;;;;3.42;1.40;;;-4.10;99.90;;;;;;5045914;28;20159;-64
2021/12/21 06:51:23;;;;;;;4.47;1.13;;;-4.30;99.90;;;;;;5032974;28;20091;-64
2021/12/21 06:53:52;;;;;;;3.40;1.00;;;-4.30;99.90;;;;;;5031044;28;20052;-64
2021/12/21 06:56:19;;;;;;;1.60;1.00;;;-4.30;99.90;;;;;;5031189;28;20049;-64
2021/12/21 06:58:45;;;;;;;2.53;1.00;;;-4.20;99.90;;;;;;5048007;28;20103;-64
2021/12/21 07:01:13;;;;;;;1.80;0.90;;;-4.30;99.90;;;;;;5045872;28;20033;-64
2021/12/21 07:03:39;;;;;;;2.92;1.27;;;-4.30;99.90;;;;;;5030396;28;20069;-64
2021/12/21 07:06:07;;;;;;;4.10;1.33;;;-4.40;99.90;;;;;;5053350;28;20048;-64
2021/12/21 07:08:45;;;;;;;2.83;0.82;;;-4.40;99.90;;;;;;5053941;28;20044;-64
2021/12/21 07:11:25;;;;;;;3.78;1.15;;;-4.40;99.90;;;;;;5051926;28;20094;-64
2021/12/21 07:19:20;;;;;;;2.03;0.50;;;-4.40;99.90;;;;;;5048737;28;20131;-64
2021/12/21 07:21:46;;;;;;;3.58;0.98;;;-4.40;99.90;;;;;;5034580;28;20504;-64
2021/12/21 07:24:11;;;;;;;1.65;0.88;;;-4.40;99.90;;;;;;5016709;28;20077;-64
2021/12/21 07:26:37;;;;;;;3.97;1.35;;;-4.40;99.90;;;;;;5018078;28;20163;-63
2021/12/21 07:29:03;;;;;;;2.92;0.77;;;-4.40;99.90;;;;;;5026347;28;20036;-64
2021/12/21 07:31:29;;;;;;;4.68;1.30;;;-4.40;99.90;;;;;;5034825;28;20041;-64
2021/12/21 07:33:55;;;;;;;3.15;1.20;;;-4.40;99.90;;;;;;5033452;28;20094;-64
2021/12/21 07:36:20;;;;;;;4.50;1.20;;;-4.40;99.90;;;;;;5048365;28;20457;-64
2021/12/21 07:38:46;;;;;;;1.80;1.25;;;-4.30;99.90;;;;;;5034083;28;20074;-64
2021/12/21 07:41:12;;;;;;;5.95;2.75;;;-4.30;99.90;;;;;;5049883;28;20395;-64
2021/12/21 07:43:37;;;;;;;4.43;1.40;;;-4.40;99.90;;;;;;5050651;28;20094;-64
2021/12/21 07:46:03;;;;;;;4.88;1.85;;;-4.50;99.90;;;;;;5032584;28;20481;-66
2021/12/21 07:48:29;;;;;;;4.22;2.05;;;-4.50;99.90;;;;;;5052310;28;20389;-64
2021/12/21 07:50:55;;;;;;;2.08;1.17;;;-4.40;99.90;;;;;;5045902;28;20075;-64
2021/12/21 07:53:21;;;;;;;5.60;1.60;;;-4.50;99.90;;;;;;5023790;28;20142;-64
2021/12/21 07:55:47;;;;;;;4.93;1.38;;;-4.50;99.90;;;;;;5051720;28;20079;-64
2021/12/21 07:58:13;;;;;;;7.32;1.33;;;-4.50;99.90;;;;;;5031217;28;20052;-64
2021/12/21 08:00:39;;;;;;;2.13;1.38;;;-4.40;99.90;;;;;;5008741;28;20063;-64
2021/12/21 08:03:05;;;;;;;6.18;1.70;;;-4.50;99.90;;;;;;5048563;28;20041;-64
2021/12/21 08:05:33;;;;;;;3.45;1.75;;;-4.50;99.90;;;;;;5024542;28;20169;-64
2021/12/21 08:08:15;;;;;;;3.78;1.48;;;-4.50;99.90;;;;;;5044772;28;20033;-64
2021/12/21 08:13:16;;;;;;;2.42;1.10;;;-4.40;99.90;;;;;;5019927;28;20049;-64
2021/12/21 08:15:42;;;;;;;2.75;1.25;;;-4.50;99.90;;;;;;5030716;28;20044;-64
2021/12/21 08:18:07;;;;;;;4.45;1.40;;;-4.50;99.90;;;;;;5011196;28;20268;-64
2021/12/21 08:20:33;;;;;;;6.43;1.80;;;-4.50;99.90;;;;;;5012278;28;20034;-64
2021/12/21 08:22:59;;;;;;;4.07;1.33;;;-4.40;99.90;;;;;;5030277;28;20124;-64
2021/12/21 08:25:26;;;;;;;2.92;1.30;;;-4.40;99.90;;;;;;5033213;28;20163;-64
2021/12/21 08:27:52;;;;;;;2.42;1.30;;;-4.50;99.90;;;;;;5029839;28;20044;-64
2021/12/21 08:30:18;;;;;;;6.78;2.03;;;-4.50;99.90;;;;;;5017667;28;20087;-64
2021/12/21 08:32:44;;;;;;;3.88;1.60;;;-4.40;99.90;;;;;;5026293;28;20069;-64
2021/12/21 08:35:13;;;;;;;2.65;1.70;;;-4.40;99.90;;;;;;5048344;28;20575;-64
2021/12/21 08:37:40;;;;;;;5.88;1.90;;;-4.30;99.90;;;;;;5031947;28;20155;-65
2021/12/21 08:40:07;;;;;;;4.70;1.65;;;-4.20;99.90;;;;;;5050147;28;20515;-64
2021/12/21 08:42:36;;;;;;;3.47;1.45;;;-4.20;99.90;;;;;;5028517;28;20063;-65
2021/12/21 08:45:06;;;;;;;7.63;1.83;;;-4.20;99.90;;;;;;5046252;28;20067;-64
2021/12/21 08:47:32;;;;;;;3.40;1.50;;;-4.10;99.90;;;;;;5049343;28;20043;-64
2021/12/21 08:49:58;;;;;;;2.50;1.13;;;-4.10;99.90;;;;;;5027939;28;20048;-64
2021/12/21 08:52:23;;;;;;;2.05;1.17;;;-4.00;99.90;;;;;;5028957;28;20037;-64
2021/12/21 08:54:49;;;;;;;5.30;1.55;;;-4.00;99.90;;;;;;5038717;28;20029;-65
2021/12/21 08:57:15;;;;;;;4.32;1.50;;;-3.90;99.90;;;;;;5049473;28;20059;-64
2021/12/21 08:59:41;;;;;;;7.47;2.42;;;-3.90;99.90;;;;;;5019135;28;20047;-65
2021/12/21 09:02:06;;;;;;;7.28;2.00;;;-3.90;99.90;;;;;;5046534;28;20037;-65
2021/12/21 09:04:33;;;;;;;3.53;1.95;;;-3.80;99.90;;;;;;5032148;28;20032;-64
2021/12/21 09:06:59;;;;;;;5.88;1.70;;;-3.70;99.90;;;;;;5027773;28;20060;-65
2021/12/21 09:09:24;;;;;;;2.72;1.85;;;-3.70;99.90;;;;;;5029352;28;20048;-65
2021/12/21 09:11:50;;;;;;;4.65;2.30;;;-3.60;99.90;;;;;;5028659;28;20045;-65
2021/12/21 09:14:17;;;;;;;5.65;1.95;;;-3.60;99.90;;;;;;5048150;28;20109;-65
2021/12/21 09:16:43;;;;;;;4.22;1.80;;;-3.50;99.90;;;;;;5045574;28;20442;-65
2021/12/21 09:19:09;;;;;;;3.60;2.35;;;-3.40;99.90;;;;;;5047011;28;20044;-64
2021/12/21 09:21:35;;;;;;;4.82;2.28;;;-3.30;99.90;;;;;;5029993;28;20377;-65
2021/12/21 09:24:00;;;;;;;7.93;2.20;;;-3.20;99.90;;;;;;5030612;28;20069;-64
2021/12/21 09:26:27;;;;;;;6.57;3.50;;;-3.20;99.90;;;;;;5039468;28;20152;-64
2021/12/21 09:28:53;;;;;;;6.50;3.30;;;-3.00;99.90;;;;;;5037852;28;20401;-64
2021/12/21 09:31:19;;;;;;;5.53;2.88;;;-3.00;99.90;;;;;;5020056;28;20052;-65
2021/12/21 09:33:45;;;;;;;6.00;3.33;;;-2.90;99.90;;;;;;5006914;28;20380;-65
2021/12/21 09:36:11;;;;;;;9.55;3.35;;;-2.80;99.90;;;;;;5046553;28;20056;-65
2021/12/21 09:38:36;;;;;;;10.95;4.03;;;-2.80;99.90;;;;;;5028747;28;20051;-65
2021/12/21 09:41:04;;;;;;;6.88;2.75;;;-2.70;99.90;;;;;;5029493;28;20148;-65
2021/12/21 09:43:31;;;;;;;12.35;4.60;;;-2.70;99.90;;;;;;5020125;28;20116;-65
2021/12/21 09:45:56;;;;;;;9.48;4.63;;;-2.60;99.90;;;;;;5044628;28;20064;-64
2021/12/21 09:48:25;;;;;;;13.50;5.57;;;-2.60;99.90;;;;;;5029996;28;20045;-65
2021/12/21 09:50:50;;;;;;;11.85;5.40;;;-2.50;99.90;;;;;;5024172;28;20118;-65
2021/12/21 09:53:16;;;;;;;14.98;6.30;;;-2.40;99.90;;;;;;5042652;28;20598;-64
2021/12/21 09:55:42;;;;;;;10.93;5.40;;;-2.40;99.90;;;;;;5013762;28;20060;-65
2021/12/21 09:58:07;;;;;;;13.05;6.15;;;-2.30;99.90;;;;;;5021941;28;20036;-65
2021/12/21 10:00:34;;;;;;;12.90;6.32;;;-2.30;99.90;;;;;;5042202;28;20033;-65
2021/12/21 10:03:04;;;;;;;9.73;5.82;;;-2.20;99.90;;;;;;5030688;28;20108;-65
2021/12/21 10:05:34;;;;;;;14.68;6.82;;;-2.20;99.90;;;;;;5042555;28;20051;-65
2021/12/21 10:08:10;;;;;;;11.32;5.78;;;-2.10;99.90;;;;;;5028428;28;20483;-65
2021/12/21 10:10:55;;;;;;;11.25;5.78;;;-2.00;99.90;;;;;;5011549;28;20089;-65
2021/12/21 10:13:23;;;;;;;9.43;5.80;;;-2.00;99.90;;;;;;5024326;28;20393;-65
2021/12/21 10:15:58;;;;;;;12.80;5.78;;;-1.90;99.90;;;;;;5027085;28;20041;-65
2021/12/21 10:18:26;;;;;;;16.85;5.50;;;-1.80;99.90;;;;;;5044913;28;20052;-66
2021/12/21 10:20:54;;;;;;;8.23;4.57;;;-1.60;99.90;;;;;;5033240;28;20041;-65
2021/12/21 10:23:24;;;;;;;10.15;4.88;;;-1.50;99.90;;;;;;5026220;28;20045;-65
2021/12/21 10:26:04;;;;;;;10.82;5.28;;;-1.40;99.90;;;;;;5029061;28;20053;-66
2021/12/21 10:28:34;;;;;;;10.60;5.68;;;-1.30;99.90;;;;;;5025168;28;20452;-66
2021/12/21 10:31:04;;;;;;;13.80;6.65;;;-1.20;99.90;;;;;;5026624;28;20040;-66
2021/12/21 10:33:30;;;;;;;13.80;5.95;;;-1.10;99.90;;;;;;5029215;28;20520;-66
2021/12/21 10:35:58;;;;;;;16.65;8.02;;;-1.10;99.90;;;;;;5010739;28;20076;-65
2021/12/21 10:38:33;;;;;;;14.98;7.35;;;-1.00;99.90;;;;;;5027769;28;20037;-66
2021/12/21 10:41:26;;;;;;;13.05;7.65;;;-0.90;99.90;;;;;;5017194;28;20102;-67
2021/12/21 10:44:02;;;;;;;15.43;7.45;;;-0.90;99.90;;;;;;5032935;28;20049;-66
2021/12/21 10:46:29;;;;;;;17.33;8.63;;;-0.70;99.90;;;;;;5033610;28;20076;-66
2021/12/21 10:49:13;;;;;;;17.98;8.20;;;-0.70;99.90;;;;;;5034981;28;20075;-66
2021/12/21 10:51:52;;;;;;;15.57;9.55;;;-0.60;99.90;;;;;;5032474;28;20040;-66
2021/12/21 10:54:31;;;;;;;17.83;11.33;;;-0.60;99.90;;;;;;5029250;28;20131;-66
2021/12/21 10:57:05;;;;;;;20.58;10.32;;;-0.50;99.90;;;;;;5047910;28;20285;-66
2021/12/21 10:59:33;;;;;;;22.60;10.73;;;-0.50;99.90;;;;;;5016992;28;20024;-66
2021/12/21 11:02:11;;;;;;;21.55;11.60;;;-0.30;99.90;;;;;;5030841;28;20048;-66
2021/12/21 11:04:46;;;;;;;19.92;10.65;;;-0.20;99.90;;;;;;5032414;28;20142;-66
2021/12/21 11:10:01;;;;;;;17.80;11.02;;;0.00;99.90;;;;;;5037261;28;20078;-66
2021/12/21 11:12:29;;;;;;;17.98;11.60;;;0.10;99.90;;;;;;5034181;28;20037;-67
2021/12/21 11:14:57;;;;;;;21.63;11.10;;;0.10;99.90;;;;;;5034049;28;20045;-67
2021/12/21 11:17:24;;;;;;;21.33;11.52;;;0.20;99.90;;;;;;5034992;28;20057;-67
2021/12/21 11:19:53;;;;;;;20.17;10.80;;;0.20;99.90;;;;;;5036458;28;20044;-66
2021/12/21 11:22:21;;;;;;;20.07;11.63;;;0.40;99.90;;;;;;5031344;28;20045;-67
2021/12/21 11:24:48;;;;;;;20.33;11.55;;;0.50;99.90;;;;;;5032727;28;20056;-67
2021/12/21 11:27:15;;;;;;;21.98;10.73;;;0.60;99.90;;;;;;5035367;28;20041;-67
2021/12/21 11:29:41;;;;;;;19.35;10.48;;;0.60;99.90;;;;;;5034486;28;20421;-67
2021/12/21 11:32:08;;;;;;;17.70;10.50;;;0.80;99.90;;;;;;5033175;28;20055;-66
2021/12/21 11:34:36;;;;;;;21.08;10.35;;;0.80;99.90;;;;;;5053694;28;20072;-66
2021/12/21 11:37:20;;;;;;;18.48;10.50;;;0.80;99.90;;;;;;5034515;28;20047;-67
2021/12/21 11:39:46;;;;;;;19.48;9.82;;;0.90;99.90;;;;;;5033523;28;20051;-67
2021/12/21 11:42:40;;;;;;;17.17;9.50;;;1.10;99.90;;;;;;5018387;28;20037;-67
2021/12/21 11:45:18;;;;;;;16.10;10.40;;;1.10;99.90;;;;;;5034586;28;20135;-67
2021/12/21 11:47:50;;;;;;;17.52;9.32;;;1.20;99.90;;;;;;5036850;28;20162;-66
2021/12/21 11:50:16;;;;;;;16.55;9.45;;;1.30;99.90;;;;;;5039243;28;20337;-67
2021/12/21 11:52:47;;;;;;;18.90;9.45;;;1.30;99.90;;;;;;5034288;28;20040;-66
2021/12/21 11:55:14;;;;;;;17.92;9.75;;;1.40;99.90;;;;;;5016117;28;20036;-66
2021/12/21 11:57:45;;;;;;;17.45;8.90;;;1.40;99.90;;;;;;5032632;28;20047;-67
2021/12/21 12:00:21;;;;;;;22.83;10.90;;;1.50;99.90;;;;;;5023741;28;20091;-67
2021/12/21 12:02:49;;;;;;;19.58;10.13;;;1.60;99.90;;;;;;5033724;28;20439;-66
2021/12/21 12:05:30;;;;;;;17.63;8.98;;;1.70;99.90;;;;;;5032451;28;20088;-66
2021/12/21 12:08:09;;;;;;;14.93;8.70;;;1.70;99.90;;;;;;5026480;28;20040;-66
2021/12/21 12:10:49;;;;;;;17.65;9.88;;;1.80;99.90;;;;;;5034234;28;20032;-66
2021/12/21 12:13:39;;;;;;;18.42;9.63;;;1.90;99.90;;;;;;5022559;28;20124;-66
2021/12/21 12:16:09;;;;;;;;;;;1.90;99.90;;;;;;5049223;28;20041;-67
2021/12/21 12:18:44;;;;;;;18.45;8.35;;;1.90;99.90;;;;;;5026090;28;20384;-67
2021/12/21 12:21:25;;;;;;;17.38;8.77;;;1.90;99.90;;;;;;5054222;28;20190;-66
2021/12/21 12:23:54;;;;;;;18.50;8.77;;;1.80;99.90;;;;;;5025757;28;20056;-67
2021/12/21 12:26:29;;;;;;;15.63;8.43;;;1.90;99.90;;;;;;5021850;28;20496;-67
2021/12/21 12:29:18;;;;;;;16.05;8.95;;;1.90;99.90;;;;;;5021678;28;20143;-66
2021/12/21 12:31:59;;;;;;;15.68;8.00;;;1.90;99.90;;;;;;5027923;28;20053;-66
2021/12/21 12:34:29;;;;;;;16.88;8.73;;;1.90;99.90;;;;;;5009988;28;20174;-66
2021/12/21 12:36:55;;;;;;;14.52;8.43;;;1.90;99.90;;;;;;5034155;28;20048;-66
2021/12/21 12:39:39;;;;;;;18.38;9.25;;;1.90;99.90;;;;;;5044161;28;20473;-66
2021/12/21 12:42:08;;;;;;;17.33;9.05;;;1.90;99.90;;;;;;5032545;28;20373;-66
2021/12/21 12:44:36;;;;;;;15.50;9.38;;;1.90;99.90;;;;;;5023327;28;20116;-66
2021/12/21 12:47:04;;;;;;;14.43;8.35;;;2.00;99.90;;;;;;5017793;28;20428;-66
2021/12/21 12:49:33;;;;;;;16.33;9.20;;;2.00;99.90;;;;;;5046242;28;20068;-66
2021/12/21 12:52:16;;;;;;;12.77;9.10;;;2.00;99.90;;;;;;5041323;28;20131;-66
2021/12/21 12:54:52;;;;;;;13.30;9.23;;;2.00;99.90;;;;;;5014123;28;20051;-66
2021/12/21 12:57:31;;;;;;;15.38;8.95;;;2.00;99.90;;;;;;5031493;28;20033;-66
2021/12/21 13:00:15;;;;;;;14.45;8.18;;;2.00;99.90;;;;;;5046542;28;20073;-66
2021/12/21 13:03:02;;;;;;;18.65;9.20;;;2.20;99.90;;;;;;5040849;28;20076;-66
2021/12/21 13:05:34;;;;;;;20.77;10.02;;;2.30;99.90;;;;;;5028891;28;20033;-67
2021/12/21 13:08:15;;;;;;;16.25;9.05;;;2.30;99.90;;;;;;5049775;28;20460;-66
2021/12/21 13:10:44;;;;;;;18.08;9.57;;;2.30;99.90;;;;;;5024246;28;20052;-66
2021/12/21 13:13:10;;;;;;;18.40;10.80;;;2.50;99.90;;;;;;5027980;28;20052;-66
2021/12/21 13:15:42;;;;;;;18.17;11.02;;;2.40;99.90;;;;;;5026215;28;20120;-67
2021/12/21 13:18:09;;;;;;;16.63;10.05;;;2.40;99.90;;;;;;5028034;28;20065;-66
2021/12/21 13:20:37;;;;;;;18.92;10.30;;;2.40;99.90;;;;;;5040740;28;20414;-67
2021/12/21 13:23:32;;;;;;;19.17;11.27;;;2.40;99.90;;;;;;5007363;28;20067;-66
2021/12/21 13:26:09;;;;;;;16.75;10.38;;;2.40;99.90;;;;;;5028767;28;20079;-66
2021/12/21 13:28:53;;;;;;;21.50;10.77;;;2.30;99.90;;;;;;5027033;28;20049;-67
2021/12/21 13:31:21;;;;;;;18.13;11.40;;;2.20;99.90;;;;;;5019548;28;20037;-66
2021/12/21 13:33:53;;;;;;;21.70;11.93;;;2.20;99.90;;;;;;5020115;28;20113;-67
2021/12/21 13:36:19;;;;;;;19.92;11.23;;;2.10;99.90;;;;;;5022376;28;20033;-67
2021/12/21 13:38:44;;;;;;;18.27;10.98;;;2.10;99.90;;;;;;5028524;28;20698;-66
2021/12/21 13:41:12;;;;;;;23.73;10.93;;;2.00;99.90;;;;;;5029493;28;20083;-67
2021/12/21 13:43:51;;;;;;;21.80;10.90;;;1.90;99.90;;;;;;5027611;28;20047;-67